sensor_id;sensor_type;location;lat;lon;timestamp;temperature;humidity
68354;DHT22;55274;43.060;25.618;2022-11-15T00:00:49;9.80;99.90
68354;DHT22;55274;43.060;25.618;2022-11-15T00:03:16;9.80;99.90
68354;DHT22;55274;43.060;25.618;2022-11-15T00:05:42;9.80;99.90
68354;DHT22;55274;43.060;25.618;2022-11-15T00:08:08;9.80;99.90
68354;DHT22;55274;43.060;25.618;2022-11-15T00:10:34;9.80;99.90
68354;DHT22;55274;43.060;25.618;2022-11-15T00:13:04;9.70;99.90
68354;DHT22;55274;43.060;25.618;2022-11-15T00:15:30;9.70;99.90
68354;DHT22;55274;43.060;25.618;2022-11-15T00:17:56;9.70;99.90
68354;DHT22;55274;43.060;25.618;2022-11-15T00:20:22;9.70;99.90
68354;DHT22;55274;43.060;25.618;2022-11-15T00:22:47;9.70;99.90
68354;DHT22;55274;43.060;25.618;2022-11-15T00:25:13;9.80;99.90
68354;DHT22;55274;43.060;25.618;2022-11-15T00:27:39;9.80;99.90
68354;DHT22;55274;43.060;25.618;2022-11-15T00:30:05;9.70;99.90
68354;DHT22;55274;43.060;25.618;2022-11-15T00:32:32;9.70;99.90
68354;DHT22;55274;43.060;25.618;2022-11-15T00:34:58;9.70;99.90
68354;DHT22;55274;43.060;25.618;2022-11-15T00:37:23;9.70;99.90
68354;DHT22;55274;43.060;25.618;2022-11-15T00:39:49;9.70;99.90
68354;DHT22;55274;43.060;25.618;2022-11-15T00:42:15;9.80;99.90
68354;DHT22;55274;43.060;25.618;2022-11-15T00:44:41;9.80;99.90
68354;DHT22;55274;43.060;25.618;2022-11-15T00:47:06;9.80;99.90
68354;DHT22;55274;43.060;25.618;2022-11-15T00:49:32;9.70;99.90
68354;DHT22;55274;43.060;25.618;2022-11-15T00:51:58;9.70;99.90
68354;DHT22;55274;43.060;25.618;2022-11-15T00:54:24;9.70;99.90
68354;DHT22;55274;43.060;25.618;2022-11-15T00:56:50;9.70;99.90
68354;DHT22;55274;43.060;25.618;2022-11-15T00:59:15;9.70;99.90
68354;DHT22;55274;43.060;25.618;2022-11-15T01:01:41;9.70;99.90
68354;DHT22;55274;43.060;25.618;2022-11-15T01:04:07;9.70;99.90
68354;DHT22;55274;43.060;25.618;2022-11-15T01:06:33;9.70;99.90
68354;DHT22;55274;43.060;25.618;2022-11-15T01:08:58;9.70;99.90
68354;DHT22;55274;43.060;25.618;2022-11-15T01:11:24;9.70;99.90
68354;DHT22;55274;43.060;25.618;2022-11-15T01:13:50;9.70;99.90
68354;DHT22;55274;43.060;25.618;2022-11-15T01:16:17;9.70;99.90
68354;DHT22;55274;43.060;25.618;2022-11-15T01:18:45;9.70;99.90
68354;DHT22;55274;43.060;25.618;2022-11-15T01:21:14;9.70;99.90
68354;DHT22;55274;43.060;25.618;2022-11-15T01:23:40;9.70;99.90
68354;DHT22;55274;43.060;25.618;2022-11-15T01:26:07;9.70;99.90
68354;DHT22;55274;43.060;25.618;2022-11-15T01:28:37;9.70;99.90
68354;DHT22;55274;43.060;25.618;2022-11-15T01:31:06;9.70;99.90
68354;DHT22;55274;43.060;25.618;2022-11-15T01:33:34;9.70;99.90
68354;DHT22;55274;43.060;25.618;2022-11-15T01:36:04;9.70;99.90
68354;DHT22;55274;43.060;25.618;2022-11-15T01:38:30;9.70;99.90
68354;DHT22;55274;43.060;25.618;2022-11-15T01:40:56;9.70;99.90
68354;DHT22;55274;43.060;25.618;2022-11-15T01:46:14;9.70;99.90
68354;DHT22;55274;43.060;25.618;2022-11-15T01:48:45;9.80;99.90
68354;DHT22;55274;43.060;25.618;2022-11-15T01:51:12;9.70;99.90
68354;DHT22;55274;43.060;25.618;2022-11-15T01:53:41;9.70;99.90
68354;DHT22;55274;43.060;25.618;2022-11-15T01:56:11;9.70;99.90
68354;DHT22;55274;43.060;25.618;2022-11-15T01:58:38;9.70;99.90
68354;DHT22;55274;43.060;25.618;2022-11-15T02:01:05;9.70;99.90
68354;DHT22;55274;43.060;25.618;2022-11-15T02:03:52;9.70;99.90
68354;DHT22;55274;43.060;25.618;2022-11-15T02:06:21;9.70;99.90
68354;DHT22;55274;43.060;25.618;2022-11-15T02:08:48;9.70;99.90
68354;DHT22;55274;43.060;25.618;2022-11-15T02:11:15;9.70;99.90
68354;DHT22;55274;43.060;25.618;2022-11-15T02:13:41;9.60;99.90
68354;DHT22;55274;43.060;25.618;2022-11-15T02:18:46;9.70;99.90
68354;DHT22;55274;43.060;25.618;2022-11-15T02:32:45;9.60;99.90
68354;DHT22;55274;43.060;25.618;2022-11-15T02:35:28;9.60;99.90
68354;DHT22;55274;43.060;25.618;2022-11-15T02:38:06;9.60;99.90
68354;DHT22;55274;43.060;25.618;2022-11-15T02:40:43;9.60;99.90
68354;DHT22;55274;43.060;25.618;2022-11-15T02:43:12;9.60;99.90
68354;DHT22;55274;43.060;25.618;2022-11-15T02:46:09;9.50;99.90
68354;DHT22;55274;43.060;25.618;2022-11-15T02:48:41;9.60;99.90
68354;DHT22;55274;43.060;25.618;2022-11-15T02:51:08;9.60;99.90
68354;DHT22;55274;43.060;25.618;2022-11-15T02:53:34;9.60;99.90
68354;DHT22;55274;43.060;25.618;2022-11-15T02:56:01;9.60;99.90
68354;DHT22;55274;43.060;25.618;2022-11-15T03:04:07;9.60;99.90
68354;DHT22;55274;43.060;25.618;2022-11-15T03:06:49;9.60;99.90
68354;DHT22;55274;43.060;25.618;2022-11-15T03:09:35;9.60;99.90
68354;DHT22;55274;43.060;25.618;2022-11-15T03:12:27;9.60;99.90
68354;DHT22;55274;43.060;25.618;2022-11-15T03:14:59;9.70;99.90
68354;DHT22;55274;43.060;25.618;2022-11-15T03:17:27;9.70;99.90
68354;DHT22;55274;43.060;25.618;2022-11-15T03:19:56;9.60;99.90
68354;DHT22;55274;43.060;25.618;2022-11-15T03:22:25;9.70;99.90
68354;DHT22;55274;43.060;25.618;2022-11-15T03:24:55;9.70;99.90
68354;DHT22;55274;43.060;25.618;2022-11-15T03:27:24;9.70;99.90
68354;DHT22;55274;43.060;25.618;2022-11-15T03:29:55;9.60;99.90
68354;DHT22;55274;43.060;25.618;2022-11-15T03:32:25;9.60;99.90
68354;DHT22;55274;43.060;25.618;2022-11-15T03:35:06;9.60;99.90
68354;DHT22;55274;43.060;25.618;2022-11-15T03:40:12;9.60;99.90
68354;DHT22;55274;43.060;25.618;2022-11-15T03:43:04;9.60;99.90
68354;DHT22;55274;43.060;25.618;2022-11-15T03:45:43;9.60;99.90
68354;DHT22;55274;43.060;25.618;2022-11-15T03:48:14;9.60;99.90
68354;DHT22;55274;43.060;25.618;2022-11-15T03:50:42;9.60;99.90
68354;DHT22;55274;43.060;25.618;2022-11-15T03:53:10;9.60;99.90
68354;DHT22;55274;43.060;25.618;2022-11-15T03:55:36;9.60;99.90
68354;DHT22;55274;43.060;25.618;2022-11-15T03:58:02;9.60;99.90
68354;DHT22;55274;43.060;25.618;2022-11-15T04:00:28;9.60;99.90
68354;DHT22;55274;43.060;25.618;2022-11-15T04:02:54;9.60;99.90
68354;DHT22;55274;43.060;25.618;2022-11-15T04:05:20;9.50;99.90
68354;DHT22;55274;43.060;25.618;2022-11-15T04:07:46;9.60;99.90
68354;DHT22;55274;43.060;25.618;2022-11-15T04:10:12;9.60;99.90
68354;DHT22;55274;43.060;25.618;2022-11-15T04:12:43;9.50;99.90
68354;DHT22;55274;43.060;25.618;2022-11-15T04:15:11;9.60;99.90
68354;DHT22;55274;43.060;25.618;2022-11-15T04:17:47;9.60;99.90
68354;DHT22;55274;43.060;25.618;2022-11-15T04:20:27;9.50;99.90
68354;DHT22;55274;43.060;25.618;2022-11-15T04:25:57;9.50;99.90
68354;DHT22;55274;43.060;25.618;2022-11-15T04:28:24;9.50;99.90
68354;DHT22;55274;43.060;25.618;2022-11-15T04:30:50;9.50;99.90
68354;DHT22;55274;43.060;25.618;2022-11-15T04:33:15;9.50;99.90
68354;DHT22;55274;43.060;25.618;2022-11-15T04:35:42;9.60;99.90
68354;DHT22;55274;43.060;25.618;2022-11-15T04:38:09;9.60;99.90
68354;DHT22;55274;43.060;25.618;2022-11-15T04:40:37;9.60;99.90
68354;DHT22;55274;43.060;25.618;2022-11-15T04:43:03;9.60;99.90
68354;DHT22;55274;43.060;25.618;2022-11-15T04:45:29;9.50;99.90
68354;DHT22;55274;43.060;25.618;2022-11-15T04:47:55;9.50;99.90
68354;DHT22;55274;43.060;25.618;2022-11-15T04:50:21;9.50;99.90
68354;DHT22;55274;43.060;25.618;2022-11-15T04:52:52;9.60;99.90
68354;DHT22;55274;43.060;25.618;2022-11-15T04:55:18;9.60;99.90
68354;DHT22;55274;43.060;25.618;2022-11-15T04:57:44;9.60;99.90
68354;DHT22;55274;43.060;25.618;2022-11-15T05:00:12;9.60;99.90
68354;DHT22;55274;43.060;25.618;2022-11-15T05:02:39;9.60;99.90
68354;DHT22;55274;43.060;25.618;2022-11-15T05:05:23;9.50;99.90
68354;DHT22;55274;43.060;25.618;2022-11-15T05:07:49;9.60;99.90
68354;DHT22;55274;43.060;25.618;2022-11-15T05:10:15;9.60;99.90
68354;DHT22;55274;43.060;25.618;2022-11-15T05:12:41;9.50;99.90
68354;DHT22;55274;43.060;25.618;2022-11-15T05:15:07;9.60;99.90
68354;DHT22;55274;43.060;25.618;2022-11-15T05:17:34;9.60;99.90
68354;DHT22;55274;43.060;25.618;2022-11-15T05:19:59;9.60;99.90
68354;DHT22;55274;43.060;25.618;2022-11-15T05:22:26;9.60;99.90
68354;DHT22;55274;43.060;25.618;2022-11-15T05:24:52;9.60;99.90
68354;DHT22;55274;43.060;25.618;2022-11-15T05:27:18;9.50;99.90
68354;DHT22;55274;43.060;25.618;2022-11-15T05:29:44;9.50;99.90
68354;DHT22;55274;43.060;25.618;2022-11-15T05:32:11;9.40;99.90
68354;DHT22;55274;43.060;25.618;2022-11-15T05:34:38;9.50;99.90
68354;DHT22;55274;43.060;25.618;2022-11-15T05:37:04;9.50;99.90
68354;DHT22;55274;43.060;25.618;2022-11-15T05:39:30;9.50;99.90
68354;DHT22;55274;43.060;25.618;2022-11-15T05:42:09;9.50;99.90
68354;DHT22;55274;43.060;25.618;2022-11-15T05:44:37;9.40;99.90
68354;DHT22;55274;43.060;25.618;2022-11-15T05:47:08;9.40;99.90
68354;DHT22;55274;43.060;25.618;2022-11-15T05:49:37;9.40;99.90
68354;DHT22;55274;43.060;25.618;2022-11-15T05:52:06;9.50;99.90
68354;DHT22;55274;43.060;25.618;2022-11-15T05:54:34;9.50;99.90
68354;DHT22;55274;43.060;25.618;2022-11-15T05:57:01;9.50;99.90
68354;DHT22;55274;43.060;25.618;2022-11-15T05:59:29;9.50;99.90
68354;DHT22;55274;43.060;25.618;2022-11-15T06:01:56;9.40;99.90
68354;DHT22;55274;43.060;25.618;2022-11-15T06:04:22;9.40;99.90
68354;DHT22;55274;43.060;25.618;2022-11-15T06:06:47;9.40;99.90
68354;DHT22;55274;43.060;25.618;2022-11-15T06:09:13;9.50;99.90
68354;DHT22;55274;43.060;25.618;2022-11-15T06:11:39;9.50;99.90
68354;DHT22;55274;43.060;25.618;2022-11-15T06:14:05;9.40;99.90
68354;DHT22;55274;43.060;25.618;2022-11-15T06:16:30;9.50;99.90
68354;DHT22;55274;43.060;25.618;2022-11-15T06:18:56;9.50;99.90
68354;DHT22;55274;43.060;25.618;2022-11-15T06:21:23;9.60;99.90
68354;DHT22;55274;43.060;25.618;2022-11-15T06:23:49;9.60;99.90
68354;DHT22;55274;43.060;25.618;2022-11-15T06:26:14;9.60;99.90
68354;DHT22;55274;43.060;25.618;2022-11-15T06:28:40;9.60;99.90
68354;DHT22;55274;43.060;25.618;2022-11-15T06:31:08;9.60;99.90
68354;DHT22;55274;43.060;25.618;2022-11-15T06:33:34;9.60;99.90
68354;DHT22;55274;43.060;25.618;2022-11-15T06:36:04;9.70;99.90
68354;DHT22;55274;43.060;25.618;2022-11-15T06:38:30;9.70;99.90
68354;DHT22;55274;43.060;25.618;2022-11-15T06:41:05;9.70;99.90
68354;DHT22;55274;43.060;25.618;2022-11-15T06:43:32;9.70;99.90
68354;DHT22;55274;43.060;25.618;2022-11-15T06:45:59;9.70;99.90
68354;DHT22;55274;43.060;25.618;2022-11-15T06:48:25;9.70;99.90
68354;DHT22;55274;43.060;25.618;2022-11-15T06:50:52;9.70;99.90
68354;DHT22;55274;43.060;25.618;2022-11-15T06:53:18;9.70;99.90
68354;DHT22;55274;43.060;25.618;2022-11-15T06:55:44;9.70;99.90
68354;DHT22;55274;43.060;25.618;2022-11-15T06:58:10;9.70;99.90
68354;DHT22;55274;43.060;25.618;2022-11-15T07:00:36;9.70;99.90
68354;DHT22;55274;43.060;25.618;2022-11-15T07:03:02;9.70;99.90
68354;DHT22;55274;43.060;25.618;2022-11-15T07:05:28;9.60;99.90
68354;DHT22;55274;43.060;25.618;2022-11-15T07:07:55;9.60;99.90
68354;DHT22;55274;43.060;25.618;2022-11-15T07:10:22;9.60;99.90
68354;DHT22;55274;43.060;25.618;2022-11-15T07:12:53;9.70;99.90
68354;DHT22;55274;43.060;25.618;2022-11-15T07:15:22;9.70;99.90
68354;DHT22;55274;43.060;25.618;2022-11-15T07:17:48;9.70;99.90
68354;DHT22;55274;43.060;25.618;2022-11-15T07:20:14;9.70;99.90
68354;DHT22;55274;43.060;25.618;2022-11-15T07:22:43;9.70;99.90
68354;DHT22;55274;43.060;25.618;2022-11-15T07:25:10;9.70;99.90
68354;DHT22;55274;43.060;25.618;2022-11-15T07:27:36;9.70;99.90
68354;DHT22;55274;43.060;25.618;2022-11-15T07:30:03;9.70;99.90
68354;DHT22;55274;43.060;25.618;2022-11-15T07:32:30;9.70;99.90
68354;DHT22;55274;43.060;25.618;2022-11-15T07:34:56;9.70;99.90
68354;DHT22;55274;43.060;25.618;2022-11-15T07:37:21;9.70;99.90
68354;DHT22;55274;43.060;25.618;2022-11-15T07:39:47;9.80;99.90
68354;DHT22;55274;43.060;25.618;2022-11-15T07:42:13;9.80;99.90
68354;DHT22;55274;43.060;25.618;2022-11-15T07:44:57;9.80;99.90
68354;DHT22;55274;43.060;25.618;2022-11-15T07:47:23;9.80;99.90
68354;DHT22;55274;43.060;25.618;2022-11-15T07:49:49;9.80;99.90
68354;DHT22;55274;43.060;25.618;2022-11-15T07:52:14;9.90;99.90
68354;DHT22;55274;43.060;25.618;2022-11-15T07:54:40;9.90;99.90
68354;DHT22;55274;43.060;25.618;2022-11-15T07:57:06;9.90;99.90
68354;DHT22;55274;43.060;25.618;2022-11-15T07:59:34;9.90;99.90
68354;DHT22;55274;43.060;25.618;2022-11-15T08:02:00;9.90;99.90
68354;DHT22;55274;43.060;25.618;2022-11-15T08:04:26;9.90;99.90
68354;DHT22;55274;43.060;25.618;2022-11-15T08:06:52;9.90;99.90
68354;DHT22;55274;43.060;25.618;2022-11-15T08:09:18;10.00;99.90
68354;DHT22;55274;43.060;25.618;2022-11-15T08:11:43;10.00;99.90
68354;DHT22;55274;43.060;25.618;2022-11-15T08:14:09;10.00;99.90
68354;DHT22;55274;43.060;25.618;2022-11-15T08:16:35;10.00;99.90
68354;DHT22;55274;43.060;25.618;2022-11-15T08:19:01;10.00;99.90
68354;DHT22;55274;43.060;25.618;2022-11-15T08:21:27;10.00;99.90
68354;DHT22;55274;43.060;25.618;2022-11-15T08:23:52;10.00;99.90
68354;DHT22;55274;43.060;25.618;2022-11-15T08:26:18;10.00;99.90
68354;DHT22;55274;43.060;25.618;2022-11-15T08:28:44;10.10;99.90
68354;DHT22;55274;43.060;25.618;2022-11-15T08:31:14;10.10;99.90
68354;DHT22;55274;43.060;25.618;2022-11-15T08:33:42;10.10;99.90
68354;DHT22;55274;43.060;25.618;2022-11-15T08:36:15;10.20;99.90
68354;DHT22;55274;43.060;25.618;2022-11-15T08:38:42;10.30;99.90
68354;DHT22;55274;43.060;25.618;2022-11-15T08:41:13;10.20;99.90
68354;DHT22;55274;43.060;25.618;2022-11-15T08:43:41;10.20;99.90
68354;DHT22;55274;43.060;25.618;2022-11-15T08:46:10;10.20;99.90
68354;DHT22;55274;43.060;25.618;2022-11-15T08:48:37;10.30;99.90
68354;DHT22;55274;43.060;25.618;2022-11-15T08:51:03;10.40;99.90
68354;DHT22;55274;43.060;25.618;2022-11-15T08:53:29;10.40;99.90
68354;DHT22;55274;43.060;25.618;2022-11-15T08:55:54;10.40;99.90
68354;DHT22;55274;43.060;25.618;2022-11-15T08:58:20;10.40;99.90
68354;DHT22;55274;43.060;25.618;2022-11-15T09:00:47;10.40;99.90
68354;DHT22;55274;43.060;25.618;2022-11-15T09:03:12;10.50;99.90
68354;DHT22;55274;43.060;25.618;2022-11-15T09:05:38;10.50;99.90
68354;DHT22;55274;43.060;25.618;2022-11-15T09:08:04;10.50;99.90
68354;DHT22;55274;43.060;25.618;2022-11-15T09:10:30;10.50;99.90
68354;DHT22;55274;43.060;25.618;2022-11-15T09:12:58;10.60;99.90
68354;DHT22;55274;43.060;25.618;2022-11-15T09:15:23;10.50;99.90
68354;DHT22;55274;43.060;25.618;2022-11-15T09:17:49;10.60;99.90
68354;DHT22;55274;43.060;25.618;2022-11-15T09:20:15;10.60;99.90
68354;DHT22;55274;43.060;25.618;2022-11-15T09:22:41;10.70;99.90
68354;DHT22;55274;43.060;25.618;2022-11-15T09:25:07;10.70;99.90
68354;DHT22;55274;43.060;25.618;2022-11-15T09:27:33;10.80;99.90
68354;DHT22;55274;43.060;25.618;2022-11-15T09:29:59;10.80;99.90
68354;DHT22;55274;43.060;25.618;2022-11-15T09:32:28;10.80;99.90
68354;DHT22;55274;43.060;25.618;2022-11-15T09:34:55;10.90;99.90
68354;DHT22;55274;43.060;25.618;2022-11-15T09:37:21;10.90;99.90
68354;DHT22;55274;43.060;25.618;2022-11-15T09:39:47;11.00;99.90
68354;DHT22;55274;43.060;25.618;2022-11-15T09:45:10;11.10;99.90
68354;DHT22;55274;43.060;25.618;2022-11-15T09:50:48;11.20;99.90
68354;DHT22;55274;43.060;25.618;2022-11-15T09:53:25;11.30;99.90
68354;DHT22;55274;43.060;25.618;2022-11-15T09:56:38;11.40;99.90
68354;DHT22;55274;43.060;25.618;2022-11-15T09:58:51;11.40;99.90
68354;DHT22;55274;43.060;25.618;2022-11-15T10:01:53;11.40;99.90
68354;DHT22;55274;43.060;25.618;2022-11-15T10:04:21;11.40;99.90
68354;DHT22;55274;43.060;25.618;2022-11-15T10:09:35;11.50;99.60
68354;DHT22;55274;43.060;25.618;2022-11-15T10:12:03;11.50;99.90
68354;DHT22;55274;43.060;25.618;2022-11-15T10:14:30;11.50;99.90
68354;DHT22;55274;43.060;25.618;2022-11-15T10:27:43;11.20;99.90
68354;DHT22;55274;43.060;25.618;2022-11-15T10:30:12;11.20;99.90
68354;DHT22;55274;43.060;25.618;2022-11-15T10:32:40;11.20;99.90
68354;DHT22;55274;43.060;25.618;2022-11-15T10:35:21;11.20;99.90
68354;DHT22;55274;43.060;25.618;2022-11-15T10:37:47;11.30;99.90
68354;DHT22;55274;43.060;25.618;2022-11-15T10:40:23;11.30;99.90
68354;DHT22;55274;43.060;25.618;2022-11-15T10:45:33;11.10;99.90
68354;DHT22;55274;43.060;25.618;2022-11-15T10:48:21;11.00;99.90
68354;DHT22;55274;43.060;25.618;2022-11-15T10:50:49;11.00;99.90
68354;DHT22;55274;43.060;25.618;2022-11-15T10:55:50;11.00;99.90
68354;DHT22;55274;43.060;25.618;2022-11-15T10:58:33;11.00;99.90
68354;DHT22;55274;43.060;25.618;2022-11-15T11:01:26;11.10;99.90
68354;DHT22;55274;43.060;25.618;2022-11-15T11:04:04;11.00;99.90
68354;DHT22;55274;43.060;25.618;2022-11-15T11:06:52;11.00;99.90
68354;DHT22;55274;43.060;25.618;2022-11-15T11:11:52;10.80;99.90
68354;DHT22;55274;43.060;25.618;2022-11-15T11:14:22;10.80;99.90
68354;DHT22;55274;43.060;25.618;2022-11-15T11:25:56;10.80;99.90
68354;DHT22;55274;43.060;25.618;2022-11-15T11:31:39;10.80;99.90
68354;DHT22;55274;43.060;25.618;2022-11-15T11:34:53;10.90;99.90
68354;DHT22;55274;43.060;25.618;2022-11-15T11:37:43;10.90;99.90
68354;DHT22;55274;43.060;25.618;2022-11-15T11:48:44;11.10;99.90
68354;DHT22;55274;43.060;25.618;2022-11-15T11:54:03;11.20;99.90
68354;DHT22;55274;43.060;25.618;2022-11-15T11:56:32;11.20;99.90
68354;DHT22;55274;43.060;25.618;2022-11-15T11:59:19;11.20;99.90
68354;DHT22;55274;43.060;25.618;2022-11-15T12:01:48;11.10;99.90
68354;DHT22;55274;43.060;25.618;2022-11-15T12:04:33;11.10;99.90
68354;DHT22;55274;43.060;25.618;2022-11-15T12:07:11;11.10;99.90
68354;DHT22;55274;43.060;25.618;2022-11-15T12:10:15;11.00;99.90
68354;DHT22;55274;43.060;25.618;2022-11-15T12:13:10;11.00;99.90
68354;DHT22;55274;43.060;25.618;2022-11-15T12:15:50;11.10;99.90
68354;DHT22;55274;43.060;25.618;2022-11-15T12:18:19;11.10;99.90
68354;DHT22;55274;43.060;25.618;2022-11-15T12:21:02;11.10;99.90
68354;DHT22;55274;43.060;25.618;2022-11-15T12:23:35;11.10;99.90
68354;DHT22;55274;43.060;25.618;2022-11-15T12:26:08;11.00;99.90
68354;DHT22;55274;43.060;25.618;2022-11-15T12:28:45;11.00;99.90
68354;DHT22;55274;43.060;25.618;2022-11-15T12:31:37;11.00;99.90
68354;DHT22;55274;43.060;25.618;2022-11-15T12:34:15;10.90;99.90
68354;DHT22;55274;43.060;25.618;2022-11-15T12:36:54;11.00;99.90
68354;DHT22;55274;43.060;25.618;2022-11-15T12:39:20;11.00;99.90
68354;DHT22;55274;43.060;25.618;2022-11-15T13:02:34;11.10;99.90
68354;DHT22;55274;43.060;25.618;2022-11-15T13:22:51;11.10;99.90
68354;DHT22;55274;43.060;25.618;2022-11-15T13:28:47;11.00;99.90
68354;DHT22;55274;43.060;25.618;2022-11-15T13:33:22;11.00;99.90
68354;DHT22;55274;43.060;25.618;2022-11-15T13:35:54;11.00;99.90
68354;DHT22;55274;43.060;25.618;2022-11-15T13:40:49;11.00;99.90
68354;DHT22;55274;43.060;25.618;2022-11-15T13:43:35;10.90;99.90
68354;DHT22;55274;43.060;25.618;2022-11-15T13:48:45;10.70;99.90
68354;DHT22;55274;43.060;25.618;2022-11-15T13:51:25;10.70;99.90
68354;DHT22;55274;43.060;25.618;2022-11-15T13:56:33;10.70;99.90
68354;DHT22;55274;43.060;25.618;2022-11-15T13:59:00;10.70;99.90
68354;DHT22;55274;43.060;25.618;2022-11-15T14:01:29;10.70;99.90
68354;DHT22;55274;43.060;25.618;2022-11-15T14:03:58;10.60;99.90
68354;DHT22;55274;43.060;25.618;2022-11-15T14:06:28;10.60;99.90
68354;DHT22;55274;43.060;25.618;2022-11-15T14:09:14;10.60;99.90
68354;DHT22;55274;43.060;25.618;2022-11-15T14:11:52;10.60;99.90
68354;DHT22;55274;43.060;25.618;2022-11-15T14:14:21;10.60;99.90
68354;DHT22;55274;43.060;25.618;2022-11-15T14:16:53;10.60;99.90
68354;DHT22;55274;43.060;25.618;2022-11-15T14:22:18;10.60;99.90
68354;DHT22;55274;43.060;25.618;2022-11-15T14:27:31;10.60;99.90
68354;DHT22;55274;43.060;25.618;2022-11-15T14:29:57;10.50;99.90
68354;DHT22;55274;43.060;25.618;2022-11-15T14:32:25;10.50;99.90
68354;DHT22;55274;43.060;25.618;2022-11-15T14:34:59;10.50;99.90
68354;DHT22;55274;43.060;25.618;2022-11-15T14:37:31;10.50;99.90
68354;DHT22;55274;43.060;25.618;2022-11-15T14:39:59;10.50;99.90
68354;DHT22;55274;43.060;25.618;2022-11-15T14:42:24;10.50;99.90
68354;DHT22;55274;43.060;25.618;2022-11-15T14:44:51;10.50;99.90
68354;DHT22;55274;43.060;25.618;2022-11-15T14:47:17;10.50;99.90
68354;DHT22;55274;43.060;25.618;2022-11-15T14:49:43;10.50;99.90
68354;DHT22;55274;43.060;25.618;2022-11-15T14:52:23;10.40;99.90
68354;DHT22;55274;43.060;25.618;2022-11-15T14:54:50;10.50;99.90
68354;DHT22;55274;43.060;25.618;2022-11-15T14:57:16;10.40;99.90
68354;DHT22;55274;43.060;25.618;2022-11-15T14:59:41;10.40;99.90
68354;DHT22;55274;43.060;25.618;2022-11-15T15:02:15;10.40;99.90
68354;DHT22;55274;43.060;25.618;2022-11-15T15:04:42;10.40;99.90
68354;DHT22;55274;43.060;25.618;2022-11-15T15:07:08;10.40;99.90
68354;DHT22;55274;43.060;25.618;2022-11-15T15:09:34;10.30;99.90
68354;DHT22;55274;43.060;25.618;2022-11-15T15:12:00;10.30;99.90
68354;DHT22;55274;43.060;25.618;2022-11-15T15:14:25;10.20;99.90
68354;DHT22;55274;43.060;25.618;2022-11-15T15:16:51;10.20;99.90
68354;DHT22;55274;43.060;25.618;2022-11-15T15:19:17;10.20;99.90
68354;DHT22;55274;43.060;25.618;2022-11-15T15:21:43;10.20;99.90
68354;DHT22;55274;43.060;25.618;2022-11-15T15:24:14;10.20;99.90
68354;DHT22;55274;43.060;25.618;2022-11-15T15:26:40;10.20;99.90
68354;DHT22;55274;43.060;25.618;2022-11-15T15:29:06;10.20;99.90
68354;DHT22;55274;43.060;25.618;2022-11-15T15:31:34;10.20;99.90
68354;DHT22;55274;43.060;25.618;2022-11-15T15:34:00;10.20;99.90
68354;DHT22;55274;43.060;25.618;2022-11-15T15:36:26;10.20;99.90
68354;DHT22;55274;43.060;25.618;2022-11-15T15:38:52;10.20;99.90
68354;DHT22;55274;43.060;25.618;2022-11-15T15:41:18;10.20;99.90
68354;DHT22;55274;43.060;25.618;2022-11-15T15:43:44;10.20;99.90
68354;DHT22;55274;43.060;25.618;2022-11-15T15:46:12;10.20;99.90
68354;DHT22;55274;43.060;25.618;2022-11-15T15:48:39;10.20;99.90
68354;DHT22;55274;43.060;25.618;2022-11-15T15:51:05;10.20;99.90
68354;DHT22;55274;43.060;25.618;2022-11-15T15:53:31;10.20;99.90
68354;DHT22;55274;43.060;25.618;2022-11-15T15:55:57;10.20;99.90
68354;DHT22;55274;43.060;25.618;2022-11-15T15:58:23;10.20;99.90
68354;DHT22;55274;43.060;25.618;2022-11-15T16:00:49;10.20;99.90
68354;DHT22;55274;43.060;25.618;2022-11-15T16:03:15;10.20;99.90
68354;DHT22;55274;43.060;25.618;2022-11-15T16:05:41;10.20;99.90
68354;DHT22;55274;43.060;25.618;2022-11-15T16:08:20;10.20;99.90
68354;DHT22;55274;43.060;25.618;2022-11-15T16:10:47;10.20;99.90
68354;DHT22;55274;43.060;25.618;2022-11-15T16:13:13;10.20;99.90
68354;DHT22;55274;43.060;25.618;2022-11-15T16:15:39;10.10;99.90
68354;DHT22;55274;43.060;25.618;2022-11-15T16:18:05;10.10;99.90
68354;DHT22;55274;43.060;25.618;2022-11-15T16:20:41;10.10;99.90
68354;DHT22;55274;43.060;25.618;2022-11-15T16:23:12;10.10;99.90
68354;DHT22;55274;43.060;25.618;2022-11-15T16:25:49;10.10;99.90
68354;DHT22;55274;43.060;25.618;2022-11-15T16:28:23;10.10;99.90
68354;DHT22;55274;43.060;25.618;2022-11-15T16:30:58;10.00;99.90
68354;DHT22;55274;43.060;25.618;2022-11-15T16:33:24;10.00;99.90
68354;DHT22;55274;43.060;25.618;2022-11-15T16:35:50;10.00;99.90
68354;DHT22;55274;43.060;25.618;2022-11-15T16:38:17;10.00;99.90
68354;DHT22;55274;43.060;25.618;2022-11-15T16:40:43;10.00;99.90
68354;DHT22;55274;43.060;25.618;2022-11-15T16:43:09;10.00;99.90
68354;DHT22;55274;43.060;25.618;2022-11-15T16:45:35;10.00;99.90
68354;DHT22;55274;43.060;25.618;2022-11-15T16:48:02;10.00;99.90
68354;DHT22;55274;43.060;25.618;2022-11-15T16:50:30;10.10;99.90
68354;DHT22;55274;43.060;25.618;2022-11-15T16:52:58;10.10;99.90
68354;DHT22;55274;43.060;25.618;2022-11-15T16:55:27;10.00;99.90
68354;DHT22;55274;43.060;25.618;2022-11-15T16:57:54;10.00;99.90
68354;DHT22;55274;43.060;25.618;2022-11-15T17:00:20;10.00;99.90
68354;DHT22;55274;43.060;25.618;2022-11-15T17:02:48;10.10;99.90
68354;DHT22;55274;43.060;25.618;2022-11-15T17:05:17;10.10;99.90
68354;DHT22;55274;43.060;25.618;2022-11-15T17:07:46;10.10;99.90
68354;DHT22;55274;43.060;25.618;2022-11-15T17:10:15;10.10;99.90
68354;DHT22;55274;43.060;25.618;2022-11-15T17:12:41;10.10;99.90
68354;DHT22;55274;43.060;25.618;2022-11-15T17:15:08;10.00;99.90
68354;DHT22;55274;43.060;25.618;2022-11-15T17:17:35;10.00;99.90
68354;DHT22;55274;43.060;25.618;2022-11-15T17:20:01;10.00;99.90
68354;DHT22;55274;43.060;25.618;2022-11-15T17:22:29;10.00;99.90
68354;DHT22;55274;43.060;25.618;2022-11-15T17:24:56;10.00;99.90
68354;DHT22;55274;43.060;25.618;2022-11-15T17:27:22;10.00;99.90
68354;DHT22;55274;43.060;25.618;2022-11-15T17:29:48;10.00;99.90
68354;DHT22;55274;43.060;25.618;2022-11-15T17:32:14;10.00;99.90
68354;DHT22;55274;43.060;25.618;2022-11-15T17:34:39;10.00;99.90
68354;DHT22;55274;43.060;25.618;2022-11-15T17:37:05;10.00;99.90
68354;DHT22;55274;43.060;25.618;2022-11-15T17:39:31;10.00;99.90
68354;DHT22;55274;43.060;25.618;2022-11-15T17:41:57;10.00;99.90
68354;DHT22;55274;43.060;25.618;2022-11-15T17:44:23;10.00;99.90
68354;DHT22;55274;43.060;25.618;2022-11-15T17:46:49;10.00;99.90
68354;DHT22;55274;43.060;25.618;2022-11-15T17:49:14;10.00;99.90
68354;DHT22;55274;43.060;25.618;2022-11-15T17:51:40;10.00;99.90